KIML

Imperial Municipal Airport

Imperial, Nebraska, USA
METAR KIML 171353Z AUTO 24003KT 10SM CLR M05/M09 A3013 RMK AO2 SLP234 T10501094
Observed Flight Rules
Dec-17 @ 13:53 UTC (35 minutes ago) Visual Flight Rules
Wind Visibility Clouds
240° at 3 knots 10 miles
  • Clear skies
Temperatures Readings
Current -5°C / 23°F
Dewpoint -9°C / 16°F
Humidity 74%
Altimeter 30.13" Hg
Pressure 1023.4 hPa
Elevation 998
METAR KIML 171353Z AUTO 24003KT 10SM CLR M05/M09 A3013 RMK AO2 SLP234 T10501094
Observed Flight Rules
Dec-17 @ 13:53 UTC
(35 minutes ago)
VFR
Wind Visibility
240° at 3 knots 10 miles
Clouds
  • Clear skies
Temperature Dewpoint
-5°C / 23°F -9°C / 16°F
Humidity Altimeter Pressure
74% 30.13" Hg 1023.4 hPa